sensor_id;sensor_type;location;lat;lon;timestamp;pressure;altitude;pressure_sealevel;temperature;humidity
34328;BME280;20588;48.840;10.064;2023-02-15T00:01:42;97780.06;;;-0.66;nan
34328;BME280;20588;48.840;10.064;2023-02-15T00:04:09;97783.50;;;-0.67;nan
34328;BME280;20588;48.840;10.064;2023-02-15T00:06:38;97787.84;;;-0.69;nan
34328;BME280;20588;48.840;10.064;2023-02-15T00:09:04;97787.19;;;-0.71;nan
34328;BME280;20588;48.840;10.064;2023-02-15T00:11:30;97787.47;;;-0.76;nan
34328;BME280;20588;48.840;10.064;2023-02-15T00:14:15;97778.53;;;-0.80;nan
34328;BME280;20588;48.840;10.064;2023-02-15T00:16:43;97780.50;;;-0.72;nan
34328;BME280;20588;48.840;10.064;2023-02-15T00:19:11;97767.81;;;-0.60;nan
34328;BME280;20588;48.840;10.064;2023-02-15T00:21:38;97767.00;;;-0.60;nan
34328;BME280;20588;48.840;10.064;2023-02-15T00:27:27;97765.09;;;-0.35;nan
34328;BME280;20588;48.840;10.064;2023-02-15T00:29:53;97765.22;;;-0.47;nan
34328;BME280;20588;48.840;10.064;2023-02-15T00:32:19;97766.53;;;-0.54;nan
34328;BME280;20588;48.840;10.064;2023-02-15T00:34:45;97767.69;;;-0.58;nan
34328;BME280;20588;48.840;10.064;2023-02-15T00:37:11;97757.91;;;-0.63;nan
34328;BME280;20588;48.840;10.064;2023-02-15T00:39:37;97752.09;;;-0.52;nan
34328;BME280;20588;48.840;10.064;2023-02-15T00:42:03;97754.13;;;-0.57;nan
34328;BME280;20588;48.840;10.064;2023-02-15T00:44:29;97748.84;;;-0.54;nan
34328;BME280;20588;48.840;10.064;2023-02-15T00:46:55;97749.69;;;-0.54;nan
34328;BME280;20588;48.840;10.064;2023-02-15T00:49:21;97758.63;;;-0.61;nan
34328;BME280;20588;48.840;10.064;2023-02-15T00:51:47;97754.03;;;-0.56;nan
34328;BME280;20588;48.840;10.064;2023-02-15T00:54:13;97755.75;;;-0.56;nan
34328;BME280;20588;48.840;10.064;2023-02-15T00:56:39;97752.91;;;-0.41;nan
34328;BME280;20588;48.840;10.064;2023-02-15T00:59:05;97745.91;;;-0.37;nan
34328;BME280;20588;48.840;10.064;2023-02-15T01:01:32;97741.44;;;-0.45;nan
34328;BME280;20588;48.840;10.064;2023-02-15T01:03:58;97747.53;;;-0.47;nan
34328;BME280;20588;48.840;10.064;2023-02-15T01:06:24;97736.13;;;-0.53;nan
34328;BME280;20588;48.840;10.064;2023-02-15T01:08:50;97745.31;;;-0.52;nan
34328;BME280;20588;48.840;10.064;2023-02-15T01:11:18;97742.31;;;-0.57;nan
34328;BME280;20588;48.840;10.064;2023-02-15T01:13:48;97742.06;;;-0.65;nan
34328;BME280;20588;48.840;10.064;2023-02-15T01:16:15;97743.31;;;-0.70;nan
34328;BME280;20588;48.840;10.064;2023-02-15T01:18:41;97740.91;;;-0.72;nan
34328;BME280;20588;48.840;10.064;2023-02-15T01:21:15;97741.34;;;-0.78;nan
34328;BME280;20588;48.840;10.064;2023-02-15T01:23:42;97739.34;;;-0.85;nan
34328;BME280;20588;48.840;10.064;2023-02-15T01:26:09;97738.88;;;-0.90;nan
34328;BME280;20588;48.840;10.064;2023-02-15T01:28:35;97734.97;;;-0.94;nan
34328;BME280;20588;48.840;10.064;2023-02-15T01:31:09;97736.06;;;-0.98;nan
34328;BME280;20588;48.840;10.064;2023-02-15T01:33:36;97721.97;;;-1.01;nan
34328;BME280;20588;48.840;10.064;2023-02-15T01:36:03;97726.41;;;-1.04;nan
34328;BME280;20588;48.840;10.064;2023-02-15T01:38:29;97723.75;;;-1.14;nan
34328;BME280;20588;48.840;10.064;2023-02-15T01:40:55;97718.91;;;-1.17;nan
34328;BME280;20588;48.840;10.064;2023-02-15T01:43:44;97715.78;;;-1.20;nan
34328;BME280;20588;48.840;10.064;2023-02-15T01:46:13;97716.72;;;-1.21;nan
34328;BME280;20588;48.840;10.064;2023-02-15T01:48:48;97711.56;;;-1.20;nan
34328;BME280;20588;48.840;10.064;2023-02-15T01:51:17;97716.00;;;-1.23;nan
34328;BME280;20588;48.840;10.064;2023-02-15T01:53:48;97713.81;;;-1.28;nan
34328;BME280;20588;48.840;10.064;2023-02-15T01:56:27;97711.59;;;-1.32;nan
34328;BME280;20588;48.840;10.064;2023-02-15T01:58:58;97712.75;;;-1.36;nan
34328;BME280;20588;48.840;10.064;2023-02-15T02:01:26;97708.00;;;-1.41;nan
34328;BME280;20588;48.840;10.064;2023-02-15T02:04:01;97705.81;;;-1.45;nan
34328;BME280;20588;48.840;10.064;2023-02-15T02:06:28;97705.72;;;-1.44;nan
34328;BME280;20588;48.840;10.064;2023-02-15T02:08:55;97707.34;;;-1.55;nan
34328;BME280;20588;48.840;10.064;2023-02-15T02:11:22;97710.88;;;-1.58;nan
34328;BME280;20588;48.840;10.064;2023-02-15T02:13:48;97703.00;;;-1.53;nan
34328;BME280;20588;48.840;10.064;2023-02-15T02:16:26;97704.97;;;-1.33;nan
34328;BME280;20588;48.840;10.064;2023-02-15T02:19:17;97709.94;;;-1.44;nan
34328;BME280;20588;48.840;10.064;2023-02-15T02:27:48;97717.09;;;-1.74;nan
34328;BME280;20588;48.840;10.064;2023-02-15T02:30:26;97717.50;;;-1.80;nan
34328;BME280;20588;48.840;10.064;2023-02-15T02:33:19;97716.59;;;-1.79;nan
34328;BME280;20588;48.840;10.064;2023-02-15T02:39:06;97715.66;;;-1.78;nan
34328;BME280;20588;48.840;10.064;2023-02-15T02:41:58;97714.88;;;-1.79;nan
34328;BME280;20588;48.840;10.064;2023-02-15T02:44:35;97713.34;;;-1.82;nan
34328;BME280;20588;48.840;10.064;2023-02-15T02:47:12;97709.34;;;-1.84;nan
34328;BME280;20588;48.840;10.064;2023-02-15T02:49:43;97711.47;;;-1.91;nan
34328;BME280;20588;48.840;10.064;2023-02-15T02:55:16;97712.50;;;-2.06;nan
34328;BME280;20588;48.840;10.064;2023-02-15T02:57:52;97710.47;;;-2.13;nan
34328;BME280;20588;48.840;10.064;2023-02-15T03:00:21;97709.91;;;-2.17;nan
34328;BME280;20588;48.840;10.064;2023-02-15T03:02:50;97714.34;;;-2.20;nan
34328;BME280;20588;48.840;10.064;2023-02-15T03:05:22;97710.59;;;-2.27;nan
34328;BME280;20588;48.840;10.064;2023-02-15T03:07:52;97704.25;;;-2.33;nan
34328;BME280;20588;48.840;10.064;2023-02-15T03:10:21;97704.56;;;-2.37;nan
34328;BME280;20588;48.840;10.064;2023-02-15T03:12:50;97705.56;;;-2.40;nan
34328;BME280;20588;48.840;10.064;2023-02-15T03:15:24;97696.59;;;-2.44;nan
34328;BME280;20588;48.840;10.064;2023-02-15T03:17:56;97690.16;;;-2.48;nan
34328;BME280;20588;48.840;10.064;2023-02-15T03:20:31;97695.19;;;-2.48;nan
34328;BME280;20588;48.840;10.064;2023-02-15T03:23:03;97693.59;;;-2.49;nan
34328;BME280;20588;48.840;10.064;2023-02-15T03:25:34;97693.19;;;-2.43;nan
34328;BME280;20588;48.840;10.064;2023-02-15T03:28:08;97695.59;;;-2.41;nan
34328;BME280;20588;48.840;10.064;2023-02-15T03:30:35;97691.66;;;-2.33;nan
34328;BME280;20588;48.840;10.064;2023-02-15T03:33:05;97693.06;;;-2.29;nan
34328;BME280;20588;48.840;10.064;2023-02-15T03:35:49;97686.91;;;-2.25;nan
34328;BME280;20588;48.840;10.064;2023-02-15T03:38:21;97687.44;;;-2.20;nan
34328;BME280;20588;48.840;10.064;2023-02-15T03:40:54;97685.78;;;-2.21;nan
34328;BME280;20588;48.840;10.064;2023-02-15T03:43:56;97684.19;;;-2.22;nan
34328;BME280;20588;48.840;10.064;2023-02-15T03:49:35;97680.84;;;-2.22;nan
34328;BME280;20588;48.840;10.064;2023-02-15T03:51:54;97693.66;;;-2.25;nan
34328;BME280;20588;48.840;10.064;2023-02-15T03:54:33;97689.94;;;-2.32;nan
34328;BME280;20588;48.840;10.064;2023-02-15T03:57:22;97685.91;;;-2.35;nan
34328;BME280;20588;48.840;10.064;2023-02-15T04:00:18;97687.94;;;-2.40;nan
34328;BME280;20588;48.840;10.064;2023-02-15T04:05:50;97685.00;;;-2.46;nan
34328;BME280;20588;48.840;10.064;2023-02-15T04:08:16;97675.94;;;-2.49;nan
34328;BME280;20588;48.840;10.064;2023-02-15T04:10:43;97677.66;;;-2.49;nan
34328;BME280;20588;48.840;10.064;2023-02-15T04:13:31;97673.72;;;-2.53;nan
34328;BME280;20588;48.840;10.064;2023-02-15T04:15:58;97679.34;;;-2.50;nan
34328;BME280;20588;48.840;10.064;2023-02-15T04:18:37;97673.91;;;-2.44;nan
34328;BME280;20588;48.840;10.064;2023-02-15T04:21:24;97677.03;;;-2.40;nan
34328;BME280;20588;48.840;10.064;2023-02-15T04:24:10;97668.78;;;-2.30;nan
34328;BME280;20588;48.840;10.064;2023-02-15T04:26:54;97673.41;;;-2.24;nan
34328;BME280;20588;48.840;10.064;2023-02-15T04:29:23;97666.56;;;-2.22;nan
34328;BME280;20588;48.840;10.064;2023-02-15T04:31:50;97674.72;;;-2.18;nan
34328;BME280;20588;48.840;10.064;2023-02-15T04:34:16;97674.41;;;-2.14;nan
34328;BME280;20588;48.840;10.064;2023-02-15T04:36:43;97672.31;;;-2.20;nan
34328;BME280;20588;48.840;10.064;2023-02-15T04:39:09;97670.16;;;-2.26;nan
34328;BME280;20588;48.840;10.064;2023-02-15T04:41:37;97660.28;;;-2.29;nan
34328;BME280;20588;48.840;10.064;2023-02-15T04:44:04;97659.31;;;-2.26;nan
34328;BME280;20588;48.840;10.064;2023-02-15T04:46:30;97662.03;;;-2.29;nan
34328;BME280;20588;48.840;10.064;2023-02-15T04:48:57;97661.41;;;-2.33;nan
34328;BME280;20588;48.840;10.064;2023-02-15T04:51:23;97661.53;;;-2.34;nan
34328;BME280;20588;48.840;10.064;2023-02-15T04:53:49;97654.06;;;-2.36;nan
34328;BME280;20588;48.840;10.064;2023-02-15T04:56:18;97654.28;;;-2.39;nan
34328;BME280;20588;48.840;10.064;2023-02-15T04:58:44;97648.63;;;-2.42;nan
34328;BME280;20588;48.840;10.064;2023-02-15T05:01:11;97656.38;;;-2.45;nan
34328;BME280;20588;48.840;10.064;2023-02-15T05:03:37;97655.81;;;-2.49;nan
34328;BME280;20588;48.840;10.064;2023-02-15T05:06:04;97640.06;;;-2.52;nan
34328;BME280;20588;48.840;10.064;2023-02-15T05:08:30;97644.19;;;-2.51;nan
34328;BME280;20588;48.840;10.064;2023-02-15T05:10:57;97654.47;;;-2.54;nan
34328;BME280;20588;48.840;10.064;2023-02-15T05:13:23;97661.34;;;-2.56;nan
34328;BME280;20588;48.840;10.064;2023-02-15T05:15:53;97656.41;;;-2.58;nan
34328;BME280;20588;48.840;10.064;2023-02-15T05:18:20;97660.00;;;-2.62;nan
34328;BME280;20588;48.840;10.064;2023-02-15T05:20:47;97657.69;;;-2.65;nan
34328;BME280;20588;48.840;10.064;2023-02-15T05:23:13;97652.75;;;-2.66;nan
34328;BME280;20588;48.840;10.064;2023-02-15T05:25:39;97657.31;;;-2.71;nan
34328;BME280;20588;48.840;10.064;2023-02-15T05:28:27;97657.50;;;-2.74;nan
34328;BME280;20588;48.840;10.064;2023-02-15T05:31:06;97657.81;;;-2.79;nan
34328;BME280;20588;48.840;10.064;2023-02-15T05:33:34;97658.00;;;-2.82;nan
34328;BME280;20588;48.840;10.064;2023-02-15T05:36:01;97652.47;;;-2.87;nan
34328;BME280;20588;48.840;10.064;2023-02-15T05:38:27;97651.22;;;-2.94;nan
34328;BME280;20588;48.840;10.064;2023-02-15T05:40:53;97655.78;;;-2.99;nan
34328;BME280;20588;48.840;10.064;2023-02-15T05:43:20;97648.31;;;-3.00;nan
34328;BME280;20588;48.840;10.064;2023-02-15T05:45:47;97656.84;;;-3.03;nan
34328;BME280;20588;48.840;10.064;2023-02-15T05:48:14;97658.63;;;-2.91;nan
34328;BME280;20588;48.840;10.064;2023-02-15T05:50:40;97656.38;;;-2.83;nan
34328;BME280;20588;48.840;10.064;2023-02-15T05:53:06;97663.63;;;-2.78;nan
34328;BME280;20588;48.840;10.064;2023-02-15T05:55:32;97666.06;;;-2.77;nan
34328;BME280;20588;48.840;10.064;2023-02-15T05:57:58;97661.94;;;-2.78;nan
34328;BME280;20588;48.840;10.064;2023-02-15T06:00:24;97670.19;;;-2.76;nan
34328;BME280;20588;48.840;10.064;2023-02-15T06:02:51;97675.63;;;-2.82;nan
34328;BME280;20588;48.840;10.064;2023-02-15T06:05:17;97673.22;;;-2.83;nan
34328;BME280;20588;48.840;10.064;2023-02-15T06:07:44;97671.69;;;-2.86;nan
34328;BME280;20588;48.840;10.064;2023-02-15T06:10:11;97676.03;;;-2.88;nan
34328;BME280;20588;48.840;10.064;2023-02-15T06:12:37;97671.09;;;-2.89;nan
34328;BME280;20588;48.840;10.064;2023-02-15T06:15:03;97674.00;;;-2.83;nan
34328;BME280;20588;48.840;10.064;2023-02-15T06:17:29;97675.13;;;-2.74;nan
34328;BME280;20588;48.840;10.064;2023-02-15T06:19:55;97682.59;;;-2.73;nan
34328;BME280;20588;48.840;10.064;2023-02-15T06:22:22;97677.56;;;-2.73;nan
34328;BME280;20588;48.840;10.064;2023-02-15T06:24:48;97680.75;;;-2.71;nan
34328;BME280;20588;48.840;10.064;2023-02-15T06:27:14;97683.91;;;-2.67;nan
34328;BME280;20588;48.840;10.064;2023-02-15T06:29:40;97685.19;;;-2.62;nan
34328;BME280;20588;48.840;10.064;2023-02-15T06:32:06;97685.50;;;-2.66;nan
34328;BME280;20588;48.840;10.064;2023-02-15T06:34:32;97687.22;;;-2.67;nan
34328;BME280;20588;48.840;10.064;2023-02-15T06:36:59;97680.38;;;-2.65;nan
34328;BME280;20588;48.840;10.064;2023-02-15T06:39:25;97680.47;;;-2.66;nan
34328;BME280;20588;48.840;10.064;2023-02-15T06:41:51;97690.44;;;-2.65;nan
34328;BME280;20588;48.840;10.064;2023-02-15T06:44:17;97691.88;;;-2.61;nan
34328;BME280;20588;48.840;10.064;2023-02-15T06:46:43;97685.00;;;-2.59;nan
34328;BME280;20588;48.840;10.064;2023-02-15T06:49:09;97685.63;;;-2.55;nan
34328;BME280;20588;48.840;10.064;2023-02-15T06:51:35;97687.72;;;-2.49;nan
34328;BME280;20588;48.840;10.064;2023-02-15T06:54:01;97685.63;;;-2.43;nan
34328;BME280;20588;48.840;10.064;2023-02-15T06:56:27;97689.84;;;-2.31;nan
34328;BME280;20588;48.840;10.064;2023-02-15T06:58:55;97679.06;;;-2.20;nan
34328;BME280;20588;48.840;10.064;2023-02-15T07:01:21;97686.50;;;-2.06;nan
34328;BME280;20588;48.840;10.064;2023-02-15T07:03:47;97680.53;;;-1.93;nan
34328;BME280;20588;48.840;10.064;2023-02-15T07:06:13;97686.41;;;-1.68;nan
34328;BME280;20588;48.840;10.064;2023-02-15T07:08:39;97689.16;;;-1.24;nan
34328;BME280;20588;48.840;10.064;2023-02-15T07:11:06;97681.75;;;-0.69;nan
34328;BME280;20588;48.840;10.064;2023-02-15T07:13:51;97675.38;;;-0.07;nan
34328;BME280;20588;48.840;10.064;2023-02-15T07:16:19;97669.81;;;0.75;nan
34328;BME280;20588;48.840;10.064;2023-02-15T07:18:45;97671.38;;;1.69;nan
34328;BME280;20588;48.840;10.064;2023-02-15T07:21:11;97670.81;;;2.26;nan
34328;BME280;20588;48.840;10.064;2023-02-15T07:23:38;97670.88;;;3.11;nan
34328;BME280;20588;48.840;10.064;2023-02-15T07:26:05;97672.03;;;3.45;nan
34328;BME280;20588;48.840;10.064;2023-02-15T07:28:32;97668.44;;;3.85;nan
34328;BME280;20588;48.840;10.064;2023-02-15T07:31:01;97666.34;;;4.07;nan
34328;BME280;20588;48.840;10.064;2023-02-15T07:33:30;97672.72;;;4.65;nan
34328;BME280;20588;48.840;10.064;2023-02-15T07:35:58;97676.78;;;4.76;nan
34328;BME280;20588;48.840;10.064;2023-02-15T07:38:26;97670.09;;;5.10;nan
34328;BME280;20588;48.840;10.064;2023-02-15T07:40:57;97676.72;;;5.03;nan
34328;BME280;20588;48.840;10.064;2023-02-15T07:43:23;97672.41;;;4.68;nan
34328;BME280;20588;48.840;10.064;2023-02-15T07:45:49;97679.38;;;4.49;nan
34328;BME280;20588;48.840;10.064;2023-02-15T07:48:15;97673.78;;;4.18;nan
34328;BME280;20588;48.840;10.064;2023-02-15T07:50:41;97678.44;;;3.96;nan
34328;BME280;20588;48.840;10.064;2023-02-15T07:53:07;97679.13;;;4.25;nan
34328;BME280;20588;48.840;10.064;2023-02-15T07:55:33;97668.72;;;4.80;nan
34328;BME280;20588;48.840;10.064;2023-02-15T07:57:59;97665.41;;;5.23;nan
34328;BME280;20588;48.840;10.064;2023-02-15T08:00:25;97666.47;;;5.38;nan
34328;BME280;20588;48.840;10.064;2023-02-15T08:02:53;97664.38;;;5.33;nan
34328;BME280;20588;48.840;10.064;2023-02-15T08:05:39;97669.22;;;5.01;nan
34328;BME280;20588;48.840;10.064;2023-02-15T08:08:06;97662.66;;;4.99;nan
34328;BME280;20588;48.840;10.064;2023-02-15T08:10:33;97671.25;;;5.58;nan
34328;BME280;20588;48.840;10.064;2023-02-15T08:13:18;97665.41;;;5.92;nan
34328;BME280;20588;48.840;10.064;2023-02-15T08:15:50;97657.28;;;6.38;nan
34328;BME280;20588;48.840;10.064;2023-02-15T08:18:16;97655.66;;;7.34;nan
34328;BME280;20588;48.840;10.064;2023-02-15T08:20:42;97657.22;;;6.95;nan
34328;BME280;20588;48.840;10.064;2023-02-15T08:23:14;97656.09;;;6.66;nan
34328;BME280;20588;48.840;10.064;2023-02-15T08:25:40;97654.53;;;7.05;nan
34328;BME280;20588;48.840;10.064;2023-02-15T08:28:06;97650.34;;;6.80;nan
34328;BME280;20588;48.840;10.064;2023-02-15T08:30:32;97653.53;;;7.30;nan
34328;BME280;20588;48.840;10.064;2023-02-15T08:32:58;97645.75;;;8.41;nan
34328;BME280;20588;48.840;10.064;2023-02-15T08:35:24;97643.44;;;9.22;nan
34328;BME280;20588;48.840;10.064;2023-02-15T08:37:51;97642.34;;;10.76;nan
34328;BME280;20588;48.840;10.064;2023-02-15T08:40:18;97630.38;;;11.32;nan
34328;BME280;20588;48.840;10.064;2023-02-15T08:42:44;97626.00;;;13.01;nan
34328;BME280;20588;48.840;10.064;2023-02-15T08:45:10;97618.22;;;15.36;nan
34328;BME280;20588;48.840;10.064;2023-02-15T08:47:36;97623.59;;;16.38;nan
34328;BME280;20588;48.840;10.064;2023-02-15T08:50:02;97618.69;;;17.30;nan
34328;BME280;20588;48.840;10.064;2023-02-15T08:52:28;97622.84;;;16.67;nan
34328;BME280;20588;48.840;10.064;2023-02-15T08:54:54;97627.47;;;17.47;nan
34328;BME280;20588;48.840;10.064;2023-02-15T08:57:20;97627.75;;;17.39;nan
34328;BME280;20588;48.840;10.064;2023-02-15T08:59:46;97623.03;;;16.00;nan
34328;BME280;20588;48.840;10.064;2023-02-15T09:02:12;97631.59;;;13.44;nan
34328;BME280;20588;48.840;10.064;2023-02-15T09:04:38;97635.44;;;14.24;nan
34328;BME280;20588;48.840;10.064;2023-02-15T09:07:04;97629.06;;;15.27;nan
34328;BME280;20588;48.840;10.064;2023-02-15T09:09:30;97623.53;;;17.15;nan
34328;BME280;20588;48.840;10.064;2023-02-15T09:11:57;97621.38;;;19.12;nan
34328;BME280;20588;48.840;10.064;2023-02-15T09:14:24;97618.94;;;20.31;nan
34328;BME280;20588;48.840;10.064;2023-02-15T09:16:52;97627.66;;;21.43;nan
34328;BME280;20588;48.840;10.064;2023-02-15T09:19:20;97611.13;;;23.28;nan
34328;BME280;20588;48.840;10.064;2023-02-15T09:21:47;97612.41;;;23.45;nan
34328;BME280;20588;48.840;10.064;2023-02-15T09:24:15;97608.16;;;23.74;nan
34328;BME280;20588;48.840;10.064;2023-02-15T09:26:43;97613.50;;;25.25;nan
34328;BME280;20588;48.840;10.064;2023-02-15T09:29:11;97607.13;;;25.31;nan
34328;BME280;20588;48.840;10.064;2023-02-15T09:31:40;97605.84;;;23.28;nan
34328;BME280;20588;48.840;10.064;2023-02-15T09:34:07;97601.00;;;24.63;nan
34328;BME280;20588;48.840;10.064;2023-02-15T09:36:36;97601.19;;;25.78;nan
34328;BME280;20588;48.840;10.064;2023-02-15T09:44:46;97601.38;;;25.58;nan
34328;BME280;20588;48.840;10.064;2023-02-15T09:50:11;97604.22;;;27.11;nan
34328;BME280;20588;48.840;10.064;2023-02-15T09:55:33;97604.84;;;26.71;nan
34328;BME280;20588;48.840;10.064;2023-02-15T10:01:28;97603.22;;;29.46;nan
34328;BME280;20588;48.840;10.064;2023-02-15T10:07:05;97595.84;;;29.65;nan
34328;BME280;20588;48.840;10.064;2023-02-15T10:17:45;97580.88;;;28.45;nan
34328;BME280;20588;48.840;10.064;2023-02-15T10:20:25;97587.78;;;28.82;nan
34328;BME280;20588;48.840;10.064;2023-02-15T10:29:03;97591.59;;;29.11;nan
34328;BME280;20588;48.840;10.064;2023-02-15T10:31:37;97580.63;;;30.27;nan
34328;BME280;20588;48.840;10.064;2023-02-15T10:34:19;97576.19;;;30.87;nan
34328;BME280;20588;48.840;10.064;2023-02-15T10:37:27;97572.41;;;31.68;nan
34328;BME280;20588;48.840;10.064;2023-02-15T10:40:16;97568.28;;;31.88;nan
34328;BME280;20588;48.840;10.064;2023-02-15T10:48:39;97563.56;;;29.71;nan
34328;BME280;20588;48.840;10.064;2023-02-15T10:54:24;97560.38;;;29.30;nan
34328;BME280;20588;48.840;10.064;2023-02-15T11:00:23;97541.81;;;28.37;nan
34328;BME280;20588;48.840;10.064;2023-02-15T11:08:07;97538.53;;;28.18;nan
34328;BME280;20588;48.840;10.064;2023-02-15T11:10:54;97541.00;;;27.87;nan
34328;BME280;20588;48.840;10.064;2023-02-15T11:13:25;97524.44;;;27.95;nan
34328;BME280;20588;48.840;10.064;2023-02-15T11:16:02;97522.19;;;27.89;nan
34328;BME280;20588;48.840;10.064;2023-02-15T11:18:34;97521.28;;;27.53;nan
34328;BME280;20588;48.840;10.064;2023-02-15T11:21:17;97523.78;;;26.67;nan
34328;BME280;20588;48.840;10.064;2023-02-15T11:23:46;97525.72;;;24.14;nan
34328;BME280;20588;48.840;10.064;2023-02-15T11:29:22;97531.09;;;21.20;nan
34328;BME280;20588;48.840;10.064;2023-02-15T11:31:56;97521.47;;;20.62;nan
34328;BME280;20588;48.840;10.064;2023-02-15T11:34:39;97525.50;;;20.00;nan
34328;BME280;20588;48.840;10.064;2023-02-15T11:37:13;97521.53;;;20.19;nan
34328;BME280;20588;48.840;10.064;2023-02-15T11:39:42;97518.06;;;19.49;nan
34328;BME280;20588;48.840;10.064;2023-02-15T11:42:19;97517.34;;;19.53;nan
34328;BME280;20588;48.840;10.064;2023-02-15T11:47:41;97503.84;;;20.05;nan
34328;BME280;20588;48.840;10.064;2023-02-15T11:50:13;97510.69;;;19.84;nan
34328;BME280;20588;48.840;10.064;2023-02-15T11:52:40;97513.63;;;19.49;nan
34328;BME280;20588;48.840;10.064;2023-02-15T11:55:13;97508.28;;;19.23;nan
34328;BME280;20588;48.840;10.064;2023-02-15T11:57:43;97509.47;;;19.15;nan
34328;BME280;20588;48.840;10.064;2023-02-15T12:00:25;97504.28;;;19.53;nan
34328;BME280;20588;48.840;10.064;2023-02-15T12:02:55;97506.03;;;19.69;nan
34328;BME280;20588;48.840;10.064;2023-02-15T12:05:24;97505.34;;;19.19;nan
34328;BME280;20588;48.840;10.064;2023-02-15T12:08:01;97499.47;;;19.45;nan
34328;BME280;20588;48.840;10.064;2023-02-15T12:10:36;97505.53;;;19.13;nan
34328;BME280;20588;48.840;10.064;2023-02-15T12:13:17;97496.91;;;19.12;nan
34328;BME280;20588;48.840;10.064;2023-02-15T12:15:47;97493.25;;;18.47;nan
34328;BME280;20588;48.840;10.064;2023-02-15T12:20:47;97492.06;;;18.38;nan
34328;BME280;20588;48.840;10.064;2023-02-15T12:23:15;97485.06;;;18.72;nan
34328;BME280;20588;48.840;10.064;2023-02-15T12:25:52;97477.84;;;19.12;nan
34328;BME280;20588;48.840;10.064;2023-02-15T12:30:52;97474.63;;;19.64;nan
34328;BME280;20588;48.840;10.064;2023-02-15T12:33:35;97480.22;;;18.97;nan
34328;BME280;20588;48.840;10.064;2023-02-15T12:36:18;97476.25;;;19.11;nan
34328;BME280;20588;48.840;10.064;2023-02-15T12:39:15;97477.50;;;19.41;nan
34328;BME280;20588;48.840;10.064;2023-02-15T12:42:04;97470.53;;;19.68;nan
34328;BME280;20588;48.840;10.064;2023-02-15T12:44:32;97467.94;;;19.73;nan
34328;BME280;20588;48.840;10.064;2023-02-15T12:47:04;97468.88;;;19.62;nan
34328;BME280;20588;48.840;10.064;2023-02-15T12:49:35;97459.81;;;19.70;nan
34328;BME280;20588;48.840;10.064;2023-02-15T12:52:27;97457.28;;;19.53;nan
34328;BME280;20588;48.840;10.064;2023-02-15T12:54:52;97456.78;;;19.56;nan
34328;BME280;20588;48.840;10.064;2023-02-15T12:57:26;97454.56;;;19.27;nan
34328;BME280;20588;48.840;10.064;2023-02-15T13:02:45;97455.19;;;18.18;nan
34328;BME280;20588;48.840;10.064;2023-02-15T13:08:20;97440.88;;;18.49;nan
34328;BME280;20588;48.840;10.064;2023-02-15T13:13:33;97431.13;;;18.94;nan
34328;BME280;20588;48.840;10.064;2023-02-15T13:16:04;97437.94;;;18.62;nan
34328;BME280;20588;48.840;10.064;2023-02-15T13:18:35;97436.78;;;17.80;nan
34328;BME280;20588;48.840;10.064;2023-02-15T13:23:33;97432.03;;;18.05;nan
34328;BME280;20588;48.840;10.064;2023-02-15T13:26:03;97431.72;;;18.18;nan
34328;BME280;20588;48.840;10.064;2023-02-15T13:28:39;97432.13;;;18.27;nan
34328;BME280;20588;48.840;10.064;2023-02-15T13:31:23;97427.72;;;18.27;nan
34328;BME280;20588;48.840;10.064;2023-02-15T13:33:56;97437.88;;;18.12;nan
34328;BME280;20588;48.840;10.064;2023-02-15T13:39:24;97433.91;;;17.93;nan
34328;BME280;20588;48.840;10.064;2023-02-15T13:50:50;97430.69;;;17.12;nan
34328;BME280;20588;48.840;10.064;2023-02-15T13:53:46;97422.66;;;17.13;nan
34328;BME280;20588;48.840;10.064;2023-02-15T14:02:23;97417.53;;;17.30;nan
34328;BME280;20588;48.840;10.064;2023-02-15T14:13:43;97411.94;;;17.10;nan
34328;BME280;20588;48.840;10.064;2023-02-15T14:16:33;97410.34;;;17.09;nan
34328;BME280;20588;48.840;10.064;2023-02-15T14:19:16;97410.91;;;17.11;nan
34328;BME280;20588;48.840;10.064;2023-02-15T14:22:18;97413.97;;;17.08;nan
34328;BME280;20588;48.840;10.064;2023-02-15T14:27:55;97408.56;;;16.98;nan
34328;BME280;20588;48.840;10.064;2023-02-15T14:30:26;97407.97;;;16.96;nan
34328;BME280;20588;48.840;10.064;2023-02-15T14:33:16;97407.97;;;16.96;nan
34328;BME280;20588;48.840;10.064;2023-02-15T14:35:47;97402.22;;;16.82;nan
34328;BME280;20588;48.840;10.064;2023-02-15T14:44:10;97411.16;;;16.52;nan
34328;BME280;20588;48.840;10.064;2023-02-15T14:49:27;97411.53;;;16.25;nan
34328;BME280;20588;48.840;10.064;2023-02-15T15:02:15;97411.72;;;15.83;nan
34328;BME280;20588;48.840;10.064;2023-02-15T15:04:52;97412.84;;;15.75;nan
34328;BME280;20588;48.840;10.064;2023-02-15T15:07:45;97412.44;;;15.60;nan
34328;BME280;20588;48.840;10.064;2023-02-15T15:15:44;97412.50;;;15.00;nan
34328;BME280;20588;48.840;10.064;2023-02-15T15:18:45;97406.09;;;14.84;nan
34328;BME280;20588;48.840;10.064;2023-02-15T15:21:41;97406.78;;;14.73;nan
34328;BME280;20588;48.840;10.064;2023-02-15T15:23:58;97398.28;;;14.66;nan
34328;BME280;20588;48.840;10.064;2023-02-15T15:26:29;97403.31;;;14.61;nan
34328;BME280;20588;48.840;10.064;2023-02-15T15:28:58;97402.84;;;14.46;nan
34328;BME280;20588;48.840;10.064;2023-02-15T15:31:31;97409.34;;;14.30;nan
34328;BME280;20588;48.840;10.064;2023-02-15T15:37:27;97409.78;;;13.90;nan
34328;BME280;20588;48.840;10.064;2023-02-15T15:42:56;97409.03;;;13.45;nan
34328;BME280;20588;48.840;10.064;2023-02-15T15:50:53;97412.78;;;12.79;nan
34328;BME280;20588;48.840;10.064;2023-02-15T15:53:27;97418.34;;;12.56;nan
34328;BME280;20588;48.840;10.064;2023-02-15T15:56:03;97421.91;;;12.36;nan
34328;BME280;20588;48.840;10.064;2023-02-15T15:58:31;97421.34;;;12.14;nan
34328;BME280;20588;48.840;10.064;2023-02-15T16:01:24;97420.47;;;11.88;nan
34328;BME280;20588;48.840;10.064;2023-02-15T16:03:53;97420.63;;;11.67;nan
34328;BME280;20588;48.840;10.064;2023-02-15T16:08:53;97421.66;;;11.32;nan
34328;BME280;20588;48.840;10.064;2023-02-15T16:11:26;97418.78;;;11.14;nan
34328;BME280;20588;48.840;10.064;2023-02-15T16:13:55;97416.31;;;10.92;nan
34328;BME280;20588;48.840;10.064;2023-02-15T16:16:24;97422.34;;;10.78;nan